Time;durP1;ratioP1;P1;durP2;ratioP2;P2;SDS_P1;SDS_P2;PMS_P1;PMS_P2;Temp;Humidity;BMP_temperature;BMP_pressure;BME280_temperature;BME280_humidity;BME280_pressure;Samples;Min_cycle;Max_cycle;Signal;HPM_P1;HPM_P2
2023/07/12 00:01:45;;;;;;;6.43;4.73;;;;;;;;;;5069862;28;20259;-54
2023/07/12 00:04:11;;;;;;;5.50;4.63;;;;;;;;;;5071724;28;20574;-54
2023/07/12 00:06:38;;;;;;;6.40;4.70;;;;;;;;;;5071791;28;20246;-49
2023/07/12 00:09:04;;;;;;;7.20;4.90;;;;;;;;;;5071689;28;20205;-52
2023/07/12 00:11:32;;;;;;;6.07;5.10;;;;;;;;;;5071534;28;20188;-52
2023/07/12 00:13:58;;;;;;;8.37;5.67;;;;;;;;;;5071675;28;20291;-52
2023/07/12 00:16:25;;;;;;;7.13;4.57;;;;;;;;;;5071556;28;20634;-52
2023/07/12 00:18:51;;;;;;;7.70;4.50;;;;;;;;;;5071572;28;20237;-52
2023/07/12 00:21:22;;;;;;;7.07;5.10;;;;;;;;;;5071532;28;20232;-52
2023/07/12 00:23:48;;;;;;;5.83;4.50;;;;;;;;;;5071381;28;20200;-52
2023/07/12 00:26:19;;;;;;;5.93;4.77;;;;;;;;;;5071582;28;20655;-53
2023/07/12 00:28:46;;;;;;;6.40;4.40;;;;;;;;;;5071368;28;20602;-52
2023/07/12 00:31:12;;;;;;;5.90;4.87;;;;;;;;;;5071486;28;20203;-52
2023/07/12 00:33:38;;;;;;;7.10;4.70;;;;;;;;;;5071168;28;20204;-52
2023/07/12 00:36:05;;;;;;;6.03;5.23;;;;;;;;;;5071284;28;20279;-52
2023/07/12 00:38:33;;;;;;;6.43;5.07;;;;;;;;;;5071111;28;20202;-51
2023/07/12 00:41:05;;;;;;;7.80;5.63;;;;;;;;;;5071234;28;20258;-51
2023/07/12 00:43:34;;;;;;;6.40;5.53;;;;;;;;;;5070863;28;20725;-53
2023/07/12 00:46:02;;;;;;;7.67;5.00;;;;;;;;;;5071253;28;20250;-53
2023/07/12 00:48:28;;;;;;;7.23;4.63;;;;;;;;;;5071087;28;20204;-52
2023/07/12 00:50:54;;;;;;;4.37;3.97;;;;;;;;;;5070974;28;20216;-52
2023/07/12 00:53:21;;;;;;;5.63;4.20;;;;;;;;;;5070998;28;20196;-51
2023/07/12 00:56:00;;;;;;;5.40;4.20;;;;;;;;;;5070176;28;20190;-51
2023/07/12 00:58:27;;;;;;;6.03;4.20;;;;;;;;;;5070831;28;20734;-52
2023/07/12 01:00:55;;;;;;;8.67;4.10;;;;;;;;;;5070906;28;20227;-53
2023/07/12 01:03:22;;;;;;;7.13;4.13;;;;;;;;;;5071200;28;20199;-51
2023/07/12 01:05:49;;;;;;;6.60;4.20;;;;;;;;;;5070765;28;20219;-53
2023/07/12 01:08:15;;;;;;;6.13;4.00;;;;;;;;;;5070757;28;20723;-53
2023/07/12 01:10:41;;;;;;;7.33;4.00;;;;;;;;;;5070788;28;20229;-53
2023/07/12 01:13:08;;;;;;;6.77;4.23;;;;;;;;;;5070807;28;20194;-52
2023/07/12 01:15:34;;;;;;;6.27;3.90;;;;;;;;;;5070790;28;20466;-53
2023/07/12 01:18:01;;;;;;;5.97;3.97;;;;;;;;;;5070881;28;20200;-52
2023/07/12 01:20:28;;;;;;;11.00;3.90;;;;;;;;;;5070744;28;20219;-53
2023/07/12 01:22:56;;;;;;;4.43;3.43;;;;;;;;;;5070854;28;20199;-53
2023/07/12 01:25:35;;;;;;;5.63;3.67;;;;;;;;;;5070528;28;20589;-53
2023/07/12 01:28:01;;;;;;;6.13;3.20;;;;;;;;;;5070776;28;20188;-53
2023/07/12 01:30:27;;;;;;;6.33;3.23;;;;;;;;;;5070646;28;20245;-52
2023/07/12 01:32:53;;;;;;;6.30;3.00;;;;;;;;;;5070783;28;20207;-53
2023/07/12 01:35:20;;;;;;;4.37;2.87;;;;;;;;;;5070658;28;20283;-53
2023/07/12 01:37:46;;;;;;;4.23;2.63;;;;;;;;;;5070555;28;20627;-53
2023/07/12 01:40:13;;;;;;;4.47;2.73;;;;;;;;;;5070749;28;20326;-53
2023/07/12 01:42:39;;;;;;;4.20;2.90;;;;;;;;;;5070313;28;20700;-52
2023/07/12 01:45:06;;;;;;;4.33;2.70;;;;;;;;;;5070513;28;20196;-53
2023/07/12 01:47:33;;;;;;;4.57;2.87;;;;;;;;;;5070434;28;20203;-52
2023/07/12 01:49:59;;;;;;;4.27;2.40;;;;;;;;;;5070531;28;20184;-51
2023/07/12 01:52:25;;;;;;;3.93;2.60;;;;;;;;;;5070449;28;20249;-51
2023/07/12 01:54:51;;;;;;;2.37;2.10;;;;;;;;;;5070541;28;20666;-49
2023/07/12 01:57:18;;;;;;;3.43;2.23;;;;;;;;;;5070567;28;20222;-49
2023/07/12 01:59:44;;;;;;;4.03;2.30;;;;;;;;;;5070687;28;20623;-49
2023/07/12 02:02:10;;;;;;;5.17;2.33;;;;;;;;;;5070449;28;20294;-50
2023/07/12 02:04:36;;;;;;;4.30;2.07;;;;;;;;;;5070345;28;20412;-52
2023/07/12 02:07:03;;;;;;;3.17;1.90;;;;;;;;;;5072926;28;20225;-51
2023/07/12 02:09:33;;;;;;;3.50;1.90;;;;;;;;;;5073962;28;20571;-50
2023/07/12 02:11:59;;;;;;;3.83;1.80;;;;;;;;;;5074100;28;20642;-49
2023/07/12 02:14:26;;;;;;;2.40;2.00;;;;;;;;;;5073914;28;20226;-53
2023/07/12 02:16:52;;;;;;;2.30;1.53;;;;;;;;;;5073820;28;20680;-50
2023/07/12 02:19:18;;;;;;;2.43;1.80;;;;;;;;;;5073887;28;20195;-50
2023/07/12 02:21:44;;;;;;;3.60;1.70;;;;;;;;;;5073879;28;20634;-50
2023/07/12 02:24:10;;;;;;;3.33;1.60;;;;;;;;;;5073695;28;20231;-51
2023/07/12 02:26:36;;;;;;;3.30;2.17;;;;;;;;;;5073690;28;20213;-50
2023/07/12 02:29:02;;;;;;;2.73;1.90;;;;;;;;;;5073719;28;20191;-51
2023/07/12 02:31:31;;;;;;;2.90;2.13;;;;;;;;;;5073836;28;20253;-50
2023/07/12 02:33:57;;;;;;;2.63;1.90;;;;;;;;;;5073465;28;20642;-50
2023/07/12 02:36:23;;;;;;;2.10;1.90;;;;;;;;;;5073526;28;20631;-50
2023/07/12 02:38:49;;;;;;;3.77;1.80;;;;;;;;;;5073451;28;20199;-52
2023/07/12 02:41:15;;;;;;;2.17;1.70;;;;;;;;;;5073413;28;20276;-51
2023/07/12 02:43:41;;;;;;;2.30;1.83;;;;;;;;;;5073163;28;20239;-51
2023/07/12 02:46:07;;;;;;;2.00;1.80;;;;;;;;;;5073475;28;20597;-51
2023/07/12 02:48:35;;;;;;;2.37;1.87;;;;;;;;;;5073146;28;20282;-51
2023/07/12 02:51:01;;;;;;;2.83;2.00;;;;;;;;;;5073423;28;20202;-51
2023/07/12 02:53:28;;;;;;;2.23;2.03;;;;;;;;;;5073240;28;20199;-50
2023/07/12 02:55:55;;;;;;;4.47;2.20;;;;;;;;;;5073501;28;20274;-52
2023/07/12 02:58:21;;;;;;;2.53;2.17;;;;;;;;;;5073436;28;20207;-51
2023/07/12 03:00:47;;;;;;;2.43;2.23;;;;;;;;;;5073103;28;20238;-50
2023/07/12 03:03:13;;;;;;;2.13;1.67;;;;;;;;;;5072929;28;20384;-50
2023/07/12 03:05:41;;;;;;;3.53;2.03;;;;;;;;;;5072991;28;20258;-51
2023/07/12 03:08:07;;;;;;;4.83;2.17;;;;;;;;;;5073094;28;20259;-52
2023/07/12 03:10:35;;;;;;;3.73;2.07;;;;;;;;;;5072856;28;20196;-50
2023/07/12 03:13:01;;;;;;;3.27;1.93;;;;;;;;;;5073194;28;20194;-51
2023/07/12 03:15:27;;;;;;;4.67;1.93;;;;;;;;;;5072767;28;20204;-50
2023/07/12 03:17:53;;;;;;;3.17;1.90;;;;;;;;;;5072261;28;20711;-50
2023/07/12 03:20:19;;;;;;;2.33;2.10;;;;;;;;;;5072774;28;20249;-49
2023/07/12 03:22:46;;;;;;;2.77;1.70;;;;;;;;;;5072521;28;20755;-50
2023/07/12 03:25:12;;;;;;;1.83;1.60;;;;;;;;;;5072665;28;20207;-50
2023/07/12 03:27:38;;;;;;;2.73;1.83;;;;;;;;;;5072609;28;20661;-51
2023/07/12 03:30:04;;;;;;;4.40;2.10;;;;;;;;;;5072541;28;20196;-52
2023/07/12 03:32:32;;;;;;;2.23;2.03;;;;;;;;;;5072723;28;20198;-51
2023/07/12 03:34:58;;;;;;;2.23;2.00;;;;;;;;;;5072577;28;20198;-52
2023/07/12 03:37:23;;;;;;;3.40;2.10;;;;;;;;;;5072436;28;20557;-50
2023/07/12 03:39:51;;;;;;;2.47;1.60;;;;;;;;;;5072223;28;20510;-52
2023/07/12 03:42:17;;;;;;;3.40;1.90;;;;;;;;;;5072256;28;20238;-50
2023/07/12 03:44:43;;;;;;;3.47;2.20;;;;;;;;;;5072139;28;20202;-50
2023/07/12 03:47:09;;;;;;;3.00;2.00;;;;;;;;;;5072537;28;20198;-51
2023/07/12 03:49:35;;;;;;;4.07;2.20;;;;;;;;;;5072129;28;20573;-51
2023/07/12 03:52:01;;;;;;;4.30;2.17;;;;;;;;;;5072156;28;20199;-50
2023/07/12 03:54:27;;;;;;;4.10;2.53;;;;;;;;;;5071934;28;20191;-50
2023/07/12 03:56:54;;;;;;;3.77;2.30;;;;;;;;;;5072026;28;20229;-50
2023/07/12 03:59:20;;;;;;;3.57;2.40;;;;;;;;;;5071836;28;20203;-49
2023/07/12 04:01:46;;;;;;;2.63;2.30;;;;;;;;;;5071409;28;20241;-51
2023/07/12 04:04:12;;;;;;;2.93;2.60;;;;;;;;;;5071708;28;20211;-50
2023/07/12 04:06:38;;;;;;;2.90;2.60;;;;;;;;;;5071555;28;20696;-51
2023/07/12 04:09:04;;;;;;;4.70;2.67;;;;;;;;;;5071250;28;20207;-50
2023/07/12 04:11:31;;;;;;;3.60;2.40;;;;;;;;;;5071510;28;20199;-50
2023/07/12 04:14:02;;;;;;;3.60;2.80;;;;;;;;;;5071802;28;20202;-51
2023/07/12 04:16:29;;;;;;;6.50;3.00;;;;;;;;;;5071631;28;20237;-51
2023/07/12 04:18:55;;;;;;;3.87;2.60;;;;;;;;;;5071648;28;20222;-49
2023/07/12 04:21:21;;;;;;;3.23;2.70;;;;;;;;;;5071366;28;20777;-50
2023/07/12 04:23:47;;;;;;;4.57;2.87;;;;;;;;;;5071212;28;20199;-49
2023/07/12 04:26:14;;;;;;;3.57;2.53;;;;;;;;;;5071631;28;20277;-50
2023/07/12 04:28:40;;;;;;;3.57;2.83;;;;;;;;;;5071254;28;20701;-49
2023/07/12 04:31:10;;;;;;;3.37;2.43;;;;;;;;;;5071392;28;20623;-50
2023/07/12 04:33:36;;;;;;;2.40;1.97;;;;;;;;;;5071189;28;20206;-50
2023/07/12 04:36:06;;;;;;;3.47;2.27;;;;;;;;;;5071325;28;20194;-49
2023/07/12 04:38:33;;;;;;;2.30;2.10;;;;;;;;;;5071243;28;20199;-50
2023/07/12 04:40:59;;;;;;;2.33;2.13;;;;;;;;;;5071228;28;20225;-50
2023/07/12 04:43:25;;;;;;;3.43;1.93;;;;;;;;;;5071061;28;20234;-51
2023/07/12 04:45:52;;;;;;;3.33;2.50;;;;;;;;;;5071345;28;20201;-51
2023/07/12 04:48:20;;;;;;;5.40;2.50;;;;;;;;;;5071246;28;20254;-50
2023/07/12 04:50:46;;;;;;;2.90;2.00;;;;;;;;;;5071075;28;20278;-51
2023/07/12 04:53:12;;;;;;;2.10;1.90;;;;;;;;;;5071198;28;20687;-49
2023/07/12 04:55:38;;;;;;;2.60;1.90;;;;;;;;;;5071019;28;20202;-50
2023/07/12 04:58:04;;;;;;;2.33;2.07;;;;;;;;;;5071135;28;20217;-49
2023/07/12 05:00:30;;;;;;;3.10;2.17;;;;;;;;;;5070945;28;20719;-51
2023/07/12 05:02:56;;;;;;;2.10;1.90;;;;;;;;;;5071052;28;20244;-51
2023/07/12 05:05:24;;;;;;;1.70;1.60;;;;;;;;;;5070882;28;20248;-49
2023/07/12 05:07:50;;;;;;;2.83;1.97;;;;;;;;;;5070799;28;20282;-50
2023/07/12 05:10:16;;;;;;;5.00;2.50;;;;;;;;;;5070913;28;20658;-50
2023/07/12 05:12:42;;;;;;;3.27;2.30;;;;;;;;;;5070760;28;20200;-50
2023/07/12 05:15:08;;;;;;;3.10;2.23;;;;;;;;;;5070920;28;20196;-50
2023/07/12 05:17:35;;;;;;;2.30;1.97;;;;;;;;;;5070906;28;20202;-51
2023/07/12 05:20:02;;;;;;;2.57;2.23;;;;;;;;;;5070785;28;20267;-51
2023/07/12 05:22:30;;;;;;;4.07;2.70;;;;;;;;;;5070753;28;20288;-51
2023/07/12 05:24:56;;;;;;;3.63;2.13;;;;;;;;;;5070743;28;20199;-51
2023/07/12 05:27:22;;;;;;;2.40;2.10;;;;;;;;;;5070710;28;20223;-51
2023/07/12 05:29:48;;;;;;;2.87;2.10;;;;;;;;;;5070826;28;20262;-51
2023/07/12 05:32:14;;;;;;;2.90;2.20;;;;;;;;;;5070730;28;20198;-51
2023/07/12 05:34:41;;;;;;;2.47;2.00;;;;;;;;;;5070607;28;20284;-51
2023/07/12 05:37:07;;;;;;;2.87;2.10;;;;;;;;;;5070794;28;20574;-51
2023/07/12 05:39:34;;;;;;;3.47;2.27;;;;;;;;;;5070444;28;20234;-50
2023/07/12 05:42:00;;;;;;;2.17;1.90;;;;;;;;;;5073126;28;20597;-52
2023/07/12 05:44:26;;;;;;;2.57;2.07;;;;;;;;;;5074499;28;20199;-51
2023/07/12 05:46:52;;;;;;;3.13;1.80;;;;;;;;;;5074431;28;20260;-51
2023/07/12 05:49:18;;;;;;;1.87;1.77;;;;;;;;;;5074541;28;20234;-51
2023/07/12 05:51:44;;;;;;;2.53;1.97;;;;;;;;;;5074559;28;20603;-52
2023/07/12 05:54:12;;;;;;;2.30;1.87;;;;;;;;;;5074244;28;20650;-52
2023/07/12 05:56:39;;;;;;;2.73;1.90;;;;;;;;;;5074121;28;20223;-52
2023/07/12 05:59:05;;;;;;;2.30;1.63;;;;;;;;;;5074146;28;20688;-51
2023/07/12 06:01:31;;;;;;;2.43;1.90;;;;;;;;;;5074096;28;20222;-52
2023/07/12 06:03:57;;;;;;;2.97;1.70;;;;;;;;;;5074256;28;20199;-51
2023/07/12 06:06:23;;;;;;;1.70;1.50;;;;;;;;;;5074087;28;20219;-52
2023/07/12 06:08:49;;;;;;;2.53;2.00;;;;;;;;;;5073796;28;20203;-52
2023/07/12 06:11:15;;;;;;;3.97;1.77;;;;;;;;;;5073995;28;20201;-51
2023/07/12 06:13:42;;;;;;;3.97;1.77;;;;;;;;;;5073671;28;20274;-51
2023/07/12 06:16:08;;;;;;;2.00;1.43;;;;;;;;;;5073947;28;20234;-51
2023/07/12 06:18:34;;;;;;;2.20;1.80;;;;;;;;;;5073787;28;20199;-52
2023/07/12 06:21:03;;;;;;;2.90;1.60;;;;;;;;;;5073763;28;20341;-51
2023/07/12 06:23:29;;;;;;;2.83;1.43;;;;;;;;;;5073683;28;20232;-51
2023/07/12 06:25:56;;;;;;;1.70;1.47;;;;;;;;;;5073726;28;20244;-51
2023/07/12 06:28:22;;;;;;;1.93;1.47;;;;;;;;;;5073736;28;20302;-51
2023/07/12 06:30:50;;;;;;;3.47;1.67;;;;;;;;;;5073805;28;20234;-51
2023/07/12 06:33:17;;;;;;;2.47;1.80;;;;;;;;;;5073751;28;20204;-52
2023/07/12 06:35:43;;;;;;;3.87;1.87;;;;;;;;;;5073482;28;20203;-52
2023/07/12 06:38:09;;;;;;;2.80;1.80;;;;;;;;;;5073434;28;20685;-52
2023/07/12 06:40:35;;;;;;;1.97;1.50;;;;;;;;;;5073419;28;20239;-53
2023/07/12 06:43:01;;;;;;;2.80;1.70;;;;;;;;;;5073531;28;20227;-52
2023/07/12 06:45:27;;;;;;;1.87;1.43;;;;;;;;;;5073170;28;20488;-51
2023/07/12 06:47:54;;;;;;;2.57;1.40;;;;;;;;;;5073268;28;20203;-52
2023/07/12 06:50:21;;;;;;;2.37;1.47;;;;;;;;;;5073356;28;20196;-53
2023/07/12 06:52:46;;;;;;;2.23;1.50;;;;;;;;;;5072097;28;20207;-54
2023/07/12 06:55:13;;;;;;;2.60;1.30;;;;;;;;;;5073387;28;20584;-51
2023/07/12 06:57:38;;;;;;;1.30;1.20;;;;;;;;;;5073175;28;20203;-52
2023/07/12 07:00:06;;;;;;;2.13;1.20;;;;;;;;;;5073296;28;20196;-53
2023/07/12 07:02:32;;;;;;;2.40;1.17;;;;;;;;;;5073253;28;20237;-53
2023/07/12 07:05:00;;;;;;;1.30;1.20;;;;;;;;;;5072973;28;20632;-52
2023/07/12 07:07:27;;;;;;;1.37;1.27;;;;;;;;;;5072992;28;20211;-53
2023/07/12 07:09:53;;;;;;;1.37;1.20;;;;;;;;;;5072603;28;20616;-53
2023/07/12 07:12:18;;;;;;;2.93;1.23;;;;;;;;;;5072836;28;20188;-53
2023/07/12 07:14:45;;;;;;;1.83;1.37;;;;;;;;;;5072813;28;20200;-52
2023/07/12 07:17:11;;;;;;;3.07;1.70;;;;;;;;;;5072995;28;20223;-52
2023/07/12 07:19:37;;;;;;;1.67;1.50;;;;;;;;;;5072731;28;20670;-53
2023/07/12 07:22:04;;;;;;;1.30;1.20;;;;;;;;;;5072652;28;20234;-53
2023/07/12 07:24:30;;;;;;;2.03;1.47;;;;;;;;;;5072707;28;20282;-53
2023/07/12 07:26:56;;;;;;;1.23;1.10;;;;;;;;;;5072591;28;20243;-53
2023/07/12 07:29:22;;;;;;;1.97;1.20;;;;;;;;;;5072573;28;20195;-54
2023/07/12 07:31:48;;;;;;;1.70;1.30;;;;;;;;;;5072419;28;20504;-54
2023/07/12 07:34:14;;;;;;;3.77;1.20;;;;;;;;;;5072614;28;20561;-53
2023/07/12 07:36:40;;;;;;;1.20;1.10;;;;;;;;;;5072375;28;20203;-54
2023/07/12 07:39:08;;;;;;;2.23;1.50;;;;;;;;;;5072265;28;20211;-54
2023/07/12 07:41:34;;;;;;;1.47;1.20;;;;;;;;;;5072235;28;20231;-53
2023/07/12 07:44:00;;;;;;;1.77;1.07;;;;;;;;;;5072257;28;20289;-53
2023/07/12 07:46:26;;;;;;;1.90;1.47;;;;;;;;;;5072489;28;20222;-54
2023/07/12 07:48:52;;;;;;;1.77;1.40;;;;;;;;;;5072060;28;20203;-54
2023/07/12 07:51:19;;;;;;;2.37;1.30;;;;;;;;;;5072100;28;20275;-54
2023/07/12 07:53:45;;;;;;;1.83;1.43;;;;;;;;;;5071872;28;20744;-54
2023/07/12 07:56:12;;;;;;;3.03;1.30;;;;;;;;;;5071964;28;20695;-54
2023/07/12 07:58:38;;;;;;;2.13;1.53;;;;;;;;;;5071866;28;20203;-54
2023/07/12 08:01:04;;;;;;;4.53;1.40;;;;;;;;;;5071904;28;20270;-54
2023/07/12 08:03:31;;;;;;;3.13;1.33;;;;;;;;;;5071415;28;20217;-54
2023/07/12 08:06:00;;;;;;;1.73;1.20;;;;;;;;;;5071568;28;20296;-55
2023/07/12 08:08:27;;;;;;;1.57;1.03;;;;;;;;;;5071669;28;20209;-52
2023/07/12 08:10:53;;;;;;;1.67;1.23;;;;;;;;;;5071602;28;20278;-53
2023/07/12 08:13:21;;;;;;;1.37;1.13;;;;;;;;;;5071646;28;20741;-54
2023/07/12 08:15:47;;;;;;;3.37;1.40;;;;;;;;;;5071512;28;20223;-54
2023/07/12 08:18:13;;;;;;;2.70;1.27;;;;;;;;;;5071669;28;20388;-57
2023/07/12 08:20:39;;;;;;;3.43;1.80;;;;;;;;;;5071433;28;20225;-57
2023/07/12 08:23:06;;;;;;;2.47;1.40;;;;;;;;;;5071376;28;20650;-55
2023/07/12 08:25:32;;;;;;;3.03;1.70;;;;;;;;;;5071464;28;20202;-56
2023/07/12 08:27:58;;;;;;;2.50;1.60;;;;;;;;;;5071478;28;20200;-55
2023/07/12 08:30:25;;;;;;;2.50;1.73;;;;;;;;;;5071325;28;20666;-55
2023/07/12 08:32:52;;;;;;;4.23;1.53;;;;;;;;;;5071232;28;20203;-54
2023/07/12 08:35:18;;;;;;;2.67;1.70;;;;;;;;;;5064582;28;20657;-52
2023/07/12 08:37:44;;;;;;;2.67;1.37;;;;;;;;;;5071156;28;20553;-52
2023/07/12 08:40:12;;;;;;;2.30;1.50;;;;;;;;;;5071079;28;20195;-53
2023/07/12 08:42:40;;;;;;;2.20;1.60;;;;;;;;;;5068572;28;20338;-54
2023/07/12 08:45:22;;;;;;;2.00;1.37;;;;;;;;;;5069306;28;20199;-52
2023/07/12 08:47:50;;;;;;;2.90;1.80;;;;;;;;;;5070988;28;20208;-53
2023/07/12 08:50:17;;;;;;;2.33;1.53;;;;;;;;;;5071125;28;20204;-53
2023/07/12 08:52:44;;;;;;;2.37;1.43;;;;;;;;;;5071282;28;20195;-52
2023/07/12 08:55:13;;;;;;;1.57;1.27;;;;;;;;;;5071317;28;20204;-53
2023/07/12 08:57:41;;;;;;;2.20;1.50;;;;;;;;;;5071101;28;20194;-54
2023/07/12 09:00:10;;;;;;;2.53;1.60;;;;;;;;;;5071110;28;20637;-54
2023/07/12 09:02:37;;;;;;;1.67;1.10;;;;;;;;;;5070888;28;20231;-51
2023/07/12 09:05:12;;;;;;;3.23;1.80;;;;;;;;;;5071242;28;20211;-52
2023/07/12 09:07:38;;;;;;;2.80;1.50;;;;;;;;;;5070918;28;20286;-53
2023/07/12 09:10:05;;;;;;;3.10;1.60;;;;;;;;;;5070907;28;20662;-54
2023/07/12 09:12:32;;;;;;;3.07;1.47;;;;;;;;;;5070843;28;20195;-53
2023/07/12 09:14:59;;;;;;;2.10;1.23;;;;;;;;;;5070544;28;20196;-52
2023/07/12 09:17:27;;;;;;;3.30;1.50;;;;;;;;;;5070444;28;20537;-53
2023/07/12 09:19:54;;;;;;;1.77;1.37;;;;;;;;;;5070730;28;20195;-52
2023/07/12 09:22:22;;;;;;;2.23;1.43;;;;;;;;;;5070628;28;20289;-52
2023/07/12 09:24:51;;;;;;;2.07;1.50;;;;;;;;;;5070617;28;20682;-53
2023/07/12 09:27:18;;;;;;;3.03;1.50;;;;;;;;;;5070737;28;20210;-52
2023/07/12 09:29:44;;;;;;;3.20;1.60;;;;;;;;;;5070711;28;20197;-52
2023/07/12 09:32:15;;;;;;;9.03;1.43;;;;;;;;;;5070709;28;20191;-54
2023/07/12 09:34:41;;;;;;;3.30;1.50;;;;;;;;;;5070565;28;20642;-52
2023/07/12 09:37:12;;;;;;;1.60;1.20;;;;;;;;;;5070998;28;20196;-52
2023/07/12 09:39:39;;;;;;;2.67;1.60;;;;;;;;;;5070909;28;20535;-53
2023/07/12 09:42:05;;;;;;;3.17;1.50;;;;;;;;;;5070707;28;20220;-51
2023/07/12 09:44:31;;;;;;;2.80;1.60;;;;;;;;;;5070803;28;20188;-52
2023/07/12 09:46:59;;;;;;;2.20;1.53;;;;;;;;;;5068205;28;20214;-53
2023/07/12 09:49:38;;;;;;;2.97;1.33;;;;;;;;;;5070492;28;20564;-52
2023/07/12 09:52:05;;;;;;;2.33;1.60;;;;;;;;;;5070456;28;20559;-53
2023/07/12 09:54:36;;;;;;;1.67;1.47;;;;;;;;;;5070346;28;20291;-53
2023/07/12 09:57:08;;;;;;;5.33;1.77;;;;;;;;;;5070410;28;20265;-52
2023/07/12 09:59:37;;;;;;;2.93;1.60;;;;;;;;;;5070338;28;20200;-52
2023/07/12 10:02:12;;;;;;;2.67;1.40;;;;;;;;;;5070013;28;20223;-53
2023/07/12 10:04:41;;;;;;;2.73;1.30;;;;;;;;;;5070292;28;20238;-54
2023/07/12 10:07:13;;;;;;;3.60;1.80;;;;;;;;;;5070032;28;20276;-52
2023/07/12 10:09:40;;;;;;;2.80;1.27;;;;;;;;;;5070067;28;20226;-54
2023/07/12 10:12:09;;;;;;;4.53;1.60;;;;;;;;;;5070147;28;20196;-53
2023/07/12 10:14:37;;;;;;;2.57;1.50;;;;;;;;;;5070292;28;20235;-54
2023/07/12 10:17:04;;;;;;;3.87;1.50;;;;;;;;;;5070695;28;20227;-54
2023/07/12 10:19:31;;;;;;;2.90;1.60;;;;;;;;;;5070896;28;20196;-54
2023/07/12 10:21:59;;;;;;;2.50;1.70;;;;;;;;;;5070377;28;20225;-54
2023/07/12 10:24:30;;;;;;;2.73;1.90;;;;;;;;;;5070548;28;20664;-54
2023/07/12 10:26:57;;;;;;;2.83;1.70;;;;;;;;;;5071570;28;20655;-53
2023/07/12 10:29:25;;;;;;;4.70;1.53;;;;;;;;;;5073997;28;20209;-54
2023/07/12 10:31:55;;;;;;;3.40;1.70;;;;;;;;;;5073968;28;20248;-53
2023/07/12 10:34:24;;;;;;;2.23;1.57;;;;;;;;;;5073949;28;20198;-53
2023/07/12 10:36:51;;;;;;;4.40;1.53;;;;;;;;;;5073750;28;20218;-53
2023/07/12 10:39:18;;;;;;;4.30;1.87;;;;;;;;;;5073888;28;20205;-53
2023/07/12 10:41:46;;;;;;;1.63;1.40;;;;;;;;;;5073544;28;20305;-54
2023/07/12 10:44:15;;;;;;;5.03;1.50;;;;;;;;;;5073544;28;20263;-53
2023/07/12 10:46:44;;;;;;;3.20;1.63;;;;;;;;;;5073647;28;20203;-54
2023/07/12 10:49:13;;;;;;;2.83;1.70;;;;;;;;;;5073731;28;20241;-54
2023/07/12 10:51:40;;;;;;;3.17;1.70;;;;;;;;;;5073463;28;20632;-54
2023/07/12 10:54:22;;;;;;;2.73;1.80;;;;;;;;;;5073698;28;20208;-54
2023/07/12 10:56:51;;;;;;;5.43;1.97;;;;;;;;;;5073574;28;20657;-55
2023/07/12 10:59:32;;;;;;;4.23;2.07;;;;;;;;;;5073452;28;20195;-54
2023/07/12 11:02:09;;;;;;;2.40;1.60;;;;;;;;;;5073339;28;20796;-55
2023/07/12 11:04:36;;;;;;;2.40;1.60;;;;;;;;;;5073335;28;20297;-54
2023/07/12 11:07:03;;;;;;;3.97;1.93;;;;;;;;;;5073384;28;20192;-53
2023/07/12 11:09:47;;;;;;;5.03;2.07;;;;;;;;;;5073424;28;20195;-54
2023/07/12 11:12:14;;;;;;;2.73;2.23;;;;;;;;;;5073074;28;20202;-54
2023/07/12 11:14:49;;;;;;;3.50;1.90;;;;;;;;;;5073230;28;20196;-53
2023/07/12 11:17:17;;;;;;;6.83;2.20;;;;;;;;;;5073224;28;20246;-54
2023/07/12 11:19:46;;;;;;;6.70;2.10;;;;;;;;;;5073165;28;20254;-54
2023/07/12 11:22:13;;;;;;;4.17;1.93;;;;;;;;;;5073003;28;20671;-54
2023/07/12 11:24:41;;;;;;;3.97;2.00;;;;;;;;;;5073071;28;20639;-53
2023/07/12 11:27:10;;;;;;;5.83;2.27;;;;;;;;;;5073149;28;20211;-54
2023/07/12 11:29:38;;;;;;;5.37;2.20;;;;;;;;;;5072887;28;20196;-53
2023/07/12 11:32:08;;;;;;;3.53;2.00;;;;;;;;;;5072857;28;20201;-54
2023/07/12 11:34:38;;;;;;;6.47;1.90;;;;;;;;;;5072732;28;20205;-53
2023/07/12 11:37:09;;;;;;;3.90;1.97;;;;;;;;;;5072844;28;20206;-54
2023/07/12 11:39:35;;;;;;;5.53;2.10;;;;;;;;;;5072110;28;20225;-54
2023/07/12 11:42:08;;;;;;;3.97;2.10;;;;;;;;;;5072308;28;20281;-53
2023/07/12 11:44:34;;;;;;;3.67;1.90;;;;;;;;;;5072750;28;20211;-54
2023/07/12 11:47:02;;;;;;;5.03;2.23;;;;;;;;;;5072506;28;20210;-53
2023/07/12 11:49:29;;;;;;;5.43;2.10;;;;;;;;;;5072469;28;20208;-53
2023/07/12 11:51:58;;;;;;;4.77;2.13;;;;;;;;;;5072336;28;20198;-54
2023/07/12 11:54:25;;;;;;;5.57;2.07;;;;;;;;;;5072570;28;20201;-54
2023/07/12 11:56:53;;;;;;;7.50;2.10;;;;;;;;;;5072314;28;20239;-54
2023/07/12 11:59:21;;;;;;;5.20;2.43;;;;;;;;;;5072354;28;20187;-53
2023/07/12 12:01:47;;;;;;;4.43;2.10;;;;;;;;;;5072202;28;20253;-53
2023/07/12 12:04:19;;;;;;;5.77;2.27;;;;;;;;;;5072163;28;20198;-54
2023/07/12 12:06:45;;;;;;;4.07;2.00;;;;;;;;;;5072123;28;20198;-53
2023/07/12 12:09:12;;;;;;;4.57;2.10;;;;;;;;;;5072266;28;20244;-54
2023/07/12 12:11:40;;;;;;;4.50;2.10;;;;;;;;;;5072164;28;20627;-53
2023/07/12 12:14:06;;;;;;;3.90;1.97;;;;;;;;;;5072333;28;20197;-53
2023/07/12 12:16:32;;;;;;;5.17;1.73;;;;;;;;;;5072211;28;20221;-53
2023/07/12 12:18:59;;;;;;;5.67;2.10;;;;;;;;;;5071861;28;20772;-54
2023/07/12 12:21:26;;;;;;;6.43;1.93;;;;;;;;;;5071791;28;20434;-53
2023/07/12 12:23:54;;;;;;;4.53;2.27;;;;;;;;;;5071895;28;20202;-54
2023/07/12 12:26:23;;;;;;;3.37;1.83;;;;;;;;;;5071868;28;20210;-54
2023/07/12 12:28:50;;;;;;;5.70;2.10;;;;;;;;;;5071810;28;20222;-54
2023/07/12 12:31:17;;;;;;;4.43;1.80;;;;;;;;;;5071685;28;20600;-53
2023/07/12 12:33:45;;;;;;;4.13;1.70;;;;;;;;;;5071670;28;20278;-54
2023/07/12 12:36:17;;;;;;;5.43;2.07;;;;;;;;;;5071789;28;20206;-52
2023/07/12 12:38:43;;;;;;;3.00;1.57;;;;;;;;;;5071488;28;20205;-52
2023/07/12 12:41:12;;;;;;;4.90;2.37;;;;;;;;;;5071671;28;20343;-53
2023/07/12 12:43:54;;;;;;;3.73;1.90;;;;;;;;;;5071337;28;20238;-53
2023/07/12 12:46:20;;;;;;;6.83;1.80;;;;;;;;;;5071696;28;20198;-52
2023/07/12 12:48:46;;;;;;;3.57;2.00;;;;;;;;;;5071522;28;20260;-52
2023/07/12 12:51:12;;;;;;;7.63;2.07;;;;;;;;;;5070585;28;20201;-52
2023/07/12 12:53:38;;;;;;;6.30;2.17;;;;;;;;;;5071382;28;20619;-54
2023/07/12 12:56:04;;;;;;;4.60;2.20;;;;;;;;;;5071331;28;20191;-54
2023/07/12 12:58:30;;;;;;;4.30;1.90;;;;;;;;;;5071535;28;20198;-49
2023/07/12 13:00:57;;;;;;;3.43;1.70;;;;;;;;;;5071359;28;20225;-50
2023/07/12 13:03:24;;;;;;;3.57;1.80;;;;;;;;;;5071293;28;20199;-49
2023/07/12 13:05:50;;;;;;;4.07;1.50;;;;;;;;;;5071290;28;20218;-49
2023/07/12 13:08:17;;;;;;;4.27;2.03;;;;;;;;;;5071232;28;20211;-51
2023/07/12 13:10:43;;;;;;;4.23;1.73;;;;;;;;;;5070951;28;20214;-50
2023/07/12 13:13:13;;;;;;;3.13;1.63;;;;;;;;;;5071081;28;20234;-50
2023/07/12 13:15:39;;;;;;;3.97;1.80;;;;;;;;;;5071184;28;20203;-50
2023/07/12 13:18:09;;;;;;;3.83;1.70;;;;;;;;;;5071123;28;20209;-49
2023/07/12 13:20:35;;;;;;;4.37;1.83;;;;;;;;;;5071005;28;20206;-50
2023/07/12 13:23:03;;;;;;;5.63;1.80;;;;;;;;;;5070761;28;20570;-50
2023/07/12 13:25:29;;;;;;;2.53;1.37;;;;;;;;;;5071031;28;20210;-50
2023/07/12 13:27:56;;;;;;;3.17;1.67;;;;;;;;;;5068884;28;20228;-51
2023/07/12 13:30:23;;;;;;;3.27;1.60;;;;;;;;;;5070573;28;20201;-50
2023/07/12 13:32:49;;;;;;;7.17;1.83;;;;;;;;;;5070386;28;20195;-51
2023/07/12 13:35:18;;;;;;;3.43;1.60;;;;;;;;;;5070305;28;20674;-51
2023/07/12 13:37:44;;;;;;;4.37;1.77;;;;;;;;;;5070387;28;20212;-51
2023/07/12 13:40:12;;;;;;;3.00;1.70;;;;;;;;;;5070615;28;20205;-51
2023/07/12 13:42:43;;;;;;;4.13;1.77;;;;;;;;;;5070127;28;20782;-51
2023/07/12 13:45:10;;;;;;;3.63;1.80;;;;;;;;;;5070302;28;20619;-51
2023/07/12 13:47:36;;;;;;;4.43;1.90;;;;;;;;;;5070336;28;20234;-50
2023/07/12 13:50:03;;;;;;;5.00;1.93;;;;;;;;;;5070400;28;20557;-50
2023/07/12 13:52:31;;;;;;;8.57;1.83;;;;;;;;;;5070332;28;20197;-51
2023/07/12 13:54:57;;;;;;;4.10;1.60;;;;;;;;;;5070070;28;20710;-50
2023/07/12 13:57:25;;;;;;;3.77;2.00;;;;;;;;;;5070191;28;20294;-51
2023/07/12 13:59:51;;;;;;;5.17;1.87;;;;;;;;;;5070080;28;20203;-51
2023/07/12 14:02:18;;;;;;;4.87;1.60;;;;;;;;;;5071679;28;20738;-49
2023/07/12 14:04:44;;;;;;;3.33;1.50;;;;;;;;;;5074170;28;20225;-49
2023/07/12 14:07:11;;;;;;;2.77;1.70;;;;;;;;;;5074363;28;20696;-51
2023/07/12 14:09:39;;;;;;;2.77;1.70;;;;;;;;;;5074412;28;20205;-51
2023/07/12 14:12:10;;;;;;;2.20;1.53;;;;;;;;;;5074266;28;20211;-49
2023/07/12 14:14:36;;;;;;;5.53;1.80;;;;;;;;;;5074203;28;20295;-49
2023/07/12 14:17:02;;;;;;;3.50;1.60;;;;;;;;;;5074199;28;20668;-50
2023/07/12 14:19:28;;;;;;;3.00;1.63;;;;;;;;;;5074384;28;20197;-51
2023/07/12 14:21:54;;;;;;;1.97;1.33;;;;;;;;;;5074059;28;20217;-49
2023/07/12 14:24:20;;;;;;;5.60;1.83;;;;;;;;;;5074319;28;20234;-50
2023/07/12 14:26:47;;;;;;;3.90;1.70;;;;;;;;;;5074051;28;20447;-50
2023/07/12 14:29:13;;;;;;;4.43;1.60;;;;;;;;;;5074307;28;20224;-52
2023/07/12 14:31:41;;;;;;;3.97;1.63;;;;;;;;;;5074090;28;20202;-50
2023/07/12 14:34:08;;;;;;;2.97;1.80;;;;;;;;;;5074025;28;20685;-51
2023/07/12 14:36:34;;;;;;;3.30;1.60;;;;;;;;;;5073890;28;20271;-49
2023/07/12 14:39:00;;;;;;;3.40;1.60;;;;;;;;;;5073711;28;20291;-51
2023/07/12 14:41:28;;;;;;;3.53;1.70;;;;;;;;;;5073808;28;20224;-50
2023/07/12 14:43:59;;;;;;;4.80;1.87;;;;;;;;;;5073730;28;20654;-51